Randall, Iowa
Current Conditions -  °F | °C
As of 3:53 PM on Monday 20 Oct 2014 (Local Time) from KAMW Reporting Station
Clear Clear  
Wind Chill: 70°   Ceiling: Unl
Heat Index: 70°   Visibility: 10mi
Dew Point: 39°   Wind: 12mph
Humidity: 32%   Direction: 320°NW
Pressure: 30"   Gusts: 20mph
Location:  42.24°N, 93.6°W
Report Text: KAMW 202053Z AUTO 32010G17KT 10SM CLR 21/04 A3000 RMK AO2 SLP154 T02110039 56006 $
Loading
Personal Weather Stations






























Interactive Weather Map
Tropical Storm Tracking
New forecast layout! Learn more

10-Day Weather Forecast

Advertisements
Track Severe Weather on mobile